x

Nantucket Sound (44020) Wave Buoy

2:50pm - Tue 21st Feb 2017 All times are EST. -5 hours from GMT.

  • Sig Wave height 1.0ft
  • Swell Direction
  • Peak Period 7s
  • Average Period 4s
  • Wind
    4mph, 7mph gusts
  • Sea Temp 39°f
  • 空気 Temp 38°f
  • Sea Pressure 1025.2mb
  • Nantucket Sound
  • Nantucket Sound

More Historic Weather Station data

Upgrade to MSW Pro to gain access to the past 30 days of data for over 8000 Wavebouys and Weather Stations around the globe.

Join Pro

Comparision Forecast

View Surf forecast
   
Tue 02/21 2:50pm 1ft 7s 4s 4 7 mph 1025.2mb 39f 38f
1:50pm 1ft 7s 4s 4
mph
1025.8mb 39f 39f
12:50pm 1ft 7s 4s 7 9 mph 1026.3mb 40f 39f
11:50am 1ft 6s 4s 9 11 mph 1026.8mb 39f 39f
10:50am 1ft 6s 4s 7 9 mph 1027.7mb 39f 38f
9:50am 1ft 6s 4s 9
mph
1028.5mb 38f 38f
8:50am 1.3ft 7s 4s 7 9 mph 1028.5mb 38f 37f
7:50am 1.3ft 6s 4s 9 11 mph 1028.1mb 38f 38f
6:50am 1.3ft 7s 4s 11 13 mph 1027.6mb 38f 38f
5:50am 1.3ft 7s 4s 11 13 mph 1027mb 38f 38f
4:50am 1.3ft 3s 3s 11 13 mph 1026.9mb 39f 38f
3:50am 1.6ft 3s 3s 13 16 mph 1026.8mb 38f 38f
2:50am 1.6ft 3s 3s 16 18 mph 1026.4mb 38f 38f
1:50am 1.6ft 3s 3s 13 18 mph 1026.6mb 38f 37f
12:50am 1.6ft 3s 3s 16 20 mph 1026.8mb 38f 37f
Mon 02/20 11:50pm 1.3ft 8s 4s 13 16 mph 1026.4mb 38f 37f
10:50pm 1.3ft 7s 4s 9
mph
1025.9mb 38f 38f
9:50pm 1.3ft 7s 4s 9
mph
1026mb 38f 38f
8:50pm 1.3ft 7s 4s 9 11 mph 1025.5mb 38f 38f
7:50pm 1.3ft 6s 3s 7 9 mph 1025.2mb 39f 38f
6:50pm 1.6ft 3s 3s 11
mph
1025mb 39f 38f
5:50pm 1.6ft 3s 3s 16 18 mph 1023.7mb 39f 38f
4:50pm 1.6ft 4s 3s 13 18 mph 1022.3mb 39f 39f
3:50pm 2ft 4s 3s 16 20 mph 1021.5mb 39f 39f
2:50pm 2.5ft 4s 4s 16 18 mph 1020.8mb 39f 39f
1:50pm 2ft 3s 3s 22 25 mph 1019.8mb 38f 38f
12:50pm 1.6ft 3s 3s 18 22 mph 1019.9mb 38f 39f
11:50am 1.6ft 3s 3s 16 18 mph 1019.6mb 38f 39f
10:50am 1.3ft 3s 3s 16 18 mph 1019.7mb 38f 40f
9:50am 1.3ft 3s 3s 11 13 mph 1019.5mb 38f 40f
8:50am 1.6ft 3s 3s 13 18 mph 1019.2mb 38f 40f
7:50am 1.6ft 3s 3s 16
mph
1018.3mb 38f 41f
6:50am 1.6ft 3s 3s 13 16 mph 1016.9mb 38f 41f
5:50am 1.3ft 2s 3s 11 13 mph 1016mb 38f 41f
4:50am 0.7ft  -  4s 18 20 mph 1014.7mb 38f 43f
3:50am 0.7ft  -  4s 9
mph
1013.9mb 38f 42f
2:50am 0.7ft  -  3s 9 11 mph 1013.4mb 39f 42f
1:50am 0.7ft  -  3s 2 4 mph 1013mb 38f 41f
12:50am 0.7ft  -  4s 7 9 mph 1012.6mb 38f 42f
Sun 02/19 11:50pm 0.7ft  -  4s 2 4 mph 1012.2mb 38f 42f
10:50pm 0.7ft  -  3s 7 9 mph 1011.7mb 38f 44f
9:50pm 1ft 3s 3s 9 11 mph 1011.3mb 38f 44f
8:50pm 1ft 3s 3s 9 11 mph 1010.7mb 38f 44f
7:50pm 1ft 3s 4s 11
mph
1009.7mb 39f 43f
6:50pm 1ft 3s 3s 11
mph
1009.2mb 38f 43f
5:50pm 1.3ft 3s 3s 11
mph
1008.5mb 38f 43f
4:50pm 1.3ft 3s 3s 13 16 mph 1007.3mb 39f 44f
3:50pm 1.3ft 3s 3s 13 16 mph 1006.4mb 39f 44f
2:50pm 1.3ft 3s 3s 18 20 mph 1006mb 39f 46f
1:50pm 1.3ft 3s 3s 16 18 mph 1005.9mb 39f 44f
12:50pm 1.3ft 3s 3s 18 20 mph 1006mb 38f 44f
11:50am 0.7ft  -  4s 13 16 mph 1006.5mb 38f 43f
10:50am 0.7ft  -  4s 11
mph
1006.6mb 38f 42f
9:50am 0.7ft  -  3s 9 13 mph 1006.4mb 38f 43f
8:50am 0.7ft  -  3s 4 7 mph 1005.9mb 38f 42f
7:50am 1ft 3s 3s 7 9 mph 1005.9mb 38f 42f
6:50am 1.3ft 4s 3s 9 11 mph 1005.4mb 38f 42f
5:50am 1.3ft 3s 3s 13 16 mph 1004.4mb 38f 42f
4:50am 1.3ft 3s 3s 16 18 mph 1003.6mb 38f 41f
3:50am 1.3ft 3s 3s 20 25 mph 1002.5mb 38f 42f
2:50am 1.3ft 3s 3s 20 25 mph 1002.1mb 38f 43f
1:50am 1.3ft 3s 3s 18 22 mph 1002.3mb 38f 43f
12:50am 1.3ft 3s 3s 18
mph
1002.1mb 38f 42f
Sat 02/18 11:50pm 1.3ft 3s 3s 16 18 mph 1002.3mb 38f 42f
10:50pm 1ft 4s 3s 11 13 mph 1002.9mb 38f 41f
9:50pm 1ft 4s 3s 9 11 mph 1003.4mb 38f 41f
8:50pm 1.3ft 3s 3s 16 20 mph 1003.4mb 38f 42f
7:50pm 1.6ft 3s 3s 16 18 mph 1003.8mb 38f 42f
6:50pm 2.5ft 4s 3s 20 22 mph 1003.2mb 38f 43f
5:50pm 2.5ft 4s 3s 25 27 mph 1003.2mb 38f 43f
4:50pm 1.6ft 3s 3s 22 25 mph 1003.5mb 38f 42f
3:50pm 1.6ft 3s 3s 20 22 mph 1003.6mb 38f 41f
2:50pm 1.3ft 3s 3s 18 20 mph 1004.6mb 38f 41f
1:50pm 1.3ft 3s 3s 18 22 mph 1006.2mb 38f 41f
12:50pm 1.3ft 2s 3s 18 20 mph 1007.3mb 38f 40f
11:50am 1ft 2s 3s 20 25 mph 1008.2mb 38f 40f
10:50am 0.7ft  -  3s 11 13 mph 1009.5mb 38f 38f
9:50am 0.7ft  -  3s 9 11 mph 1010.4mb 37f 38f
8:50am 0.7ft  -  3s 11 13 mph 1010.9mb 37f 37f
7:50am 1ft 3s 3s 13 16 mph 1010.9mb 37f 36f
6:50am 1ft 4s 3s 11 13 mph 1010.8mb 38f 35f
5:50am 1.3ft 4s 4s 7 9 mph 1010.2mb 38f 35f
4:50am 1.6ft 4s 3s 9 11 mph 1010.4mb 37f 35f
3:50am 2ft 3s 3s 18 22 mph 1011mb 38f 35f
2:50am 2ft 4s 3s 18 22 mph 1010.3mb 38f 35f
1:50am 2ft 4s 3s 20 22 mph 1010mb 38f 35f
12:50am 2ft 4s 3s 20 27 mph 1009.5mb 38f 35f
Fri 02/17 11:50pm 2ft 4s 3s 20 25 mph 1008.9mb 38f 36f
10:50pm 1.6ft 3s 3s 20 25 mph 1008.4mb 38f 37f
9:50pm 2.5ft 4s 3s 20 22 mph 1008mb 38f 37f